createdAt,value
2023-05-20T00:00:41.678Z,23.73
2023-05-20T00:01:41.666Z,24.73
2023-05-20T00:02:41.768Z,24.05
2023-05-20T00:03:41.745Z,25.10
2023-05-20T00:04:41.660Z,24.59
2023-05-20T00:05:41.794Z,24.68
2023-05-20T00:06:41.618Z,25.04
2023-05-20T00:07:41.604Z,25.10
2023-05-20T00:08:41.600Z,24.76
2023-05-20T00:09:41.605Z,24.61
2023-05-20T00:10:41.594Z,25.04
2023-05-20T00:11:41.593Z,24.76
2023-05-20T00:12:41.552Z,24.84
2023-05-20T00:13:41.541Z,24.71
2023-05-20T00:14:41.535Z,24.64
2023-05-20T00:15:41.524Z,24.48
2023-05-20T00:16:41.555Z,24.70
2023-05-20T00:17:41.529Z,24.62
2023-05-20T00:18:41.545Z,24.68
2023-05-20T00:19:41.478Z,24.64
2023-05-20T00:20:41.475Z,24.62
2023-05-20T00:21:41.462Z,24.62
2023-05-20T00:22:41.451Z,24.69
2023-05-20T00:23:41.436Z,24.80
2023-05-20T00:24:41.427Z,24.68
2023-05-20T00:25:41.419Z,24.64
2023-05-20T00:26:41.409Z,24.71
2023-05-20T00:27:41.412Z,25.01
2023-05-20T00:28:41.399Z,24.59
2023-05-20T00:29:41.376Z,24.86
2023-05-20T00:30:41.365Z,24.70
2023-05-20T00:31:41.379Z,24.59
2023-05-20T00:32:41.396Z,24.61
2023-05-20T00:33:41.332Z,24.56
2023-05-20T00:34:41.326Z,24.62
2023-05-20T00:35:41.310Z,24.96
2023-05-20T00:36:41.305Z,24.78
2023-05-20T00:37:41.287Z,24.69
2023-05-20T00:38:41.289Z,24.69
2023-05-20T00:39:41.280Z,24.68
2023-05-20T00:40:41.263Z,24.71
2023-05-20T00:41:41.249Z,25.15
2023-05-20T00:42:41.238Z,24.34
2023-05-20T00:43:41.239Z,24.65
2023-05-20T00:44:41.246Z,24.73
2023-05-20T00:45:41.214Z,25.01
2023-05-20T00:46:41.201Z,24.70
2023-05-20T00:47:41.243Z,24.57
2023-05-20T00:48:41.212Z,24.46
2023-05-20T00:49:41.163Z,25.09
2023-05-20T00:50:41.153Z,24.71
2023-05-20T00:51:41.140Z,24.65
2023-05-20T00:52:41.132Z,24.93
2023-05-20T00:53:41.119Z,24.57
2023-05-20T00:54:41.113Z,24.71
2023-05-20T00:55:41.097Z,24.68
2023-05-20T00:56:41.102Z,24.70
2023-05-20T00:57:41.081Z,24.21
2023-05-20T00:58:41.072Z,25.00
2023-05-20T00:59:42.881Z,24.62
2023-05-20T01:00:41.050Z,24.62
2023-05-20T01:01:41.052Z,24.70
2023-05-20T01:02:41.090Z,24.97
2023-05-20T01:03:41.164Z,25.07
2023-05-20T01:04:41.008Z,24.70
2023-05-20T01:05:42.435Z,24.79
2023-05-20T01:06:40.993Z,24.19
2023-05-20T01:07:40.975Z,24.77
2023-05-20T01:08:40.976Z,24.85
2023-05-20T01:09:40.954Z,24.70
2023-05-20T01:10:40.941Z,24.86
2023-05-20T01:11:40.930Z,24.59
2023-05-20T01:12:40.921Z,24.77
2023-05-20T01:13:40.910Z,24.69
2023-05-20T01:14:40.911Z,24.64
2023-05-20T01:16:31.720Z,24.97
2023-05-20T01:17:31.683Z,24.68
2023-05-20T01:18:31.648Z,23.87
2023-05-20T01:19:31.633Z,24.70
2023-05-20T01:20:31.626Z,24.71
2023-05-20T01:21:31.607Z,24.70
2023-05-20T01:22:31.633Z,24.48
2023-05-20T01:23:31.591Z,25.17
2023-05-20T01:24:31.585Z,24.11
2023-05-20T01:25:31.606Z,24.64
2023-05-20T01:26:31.559Z,24.62
2023-05-20T01:27:31.550Z,24.78
2023-05-20T01:28:31.538Z,24.77
2023-05-20T01:29:31.531Z,25.12
2023-05-20T01:30:31.523Z,24.77
2023-05-20T01:31:31.549Z,24.76
2023-05-20T01:32:31.562Z,24.20
2023-05-20T01:33:31.483Z,24.12
2023-05-20T01:34:31.475Z,24.18
2023-05-20T01:35:31.469Z,24.11
2023-05-20T01:36:31.456Z,24.38
2023-05-20T01:37:31.445Z,24.78
2023-05-20T01:38:31.430Z,24.72
2023-05-20T01:39:31.418Z,24.27
2023-05-20T01:40:31.422Z,24.62
2023-05-20T01:41:31.399Z,24.70
2023-05-20T01:42:31.391Z,24.78
2023-05-20T01:43:31.379Z,24.79
2023-05-20T01:44:31.377Z,24.62
2023-05-20T01:45:31.422Z,24.61
2023-05-20T01:46:31.379Z,24.20
2023-05-20T01:47:31.399Z,24.79
2023-05-20T01:48:31.358Z,24.68
2023-05-20T01:49:31.333Z,24.72
2023-05-20T01:50:31.307Z,24.70
2023-05-20T01:51:31.296Z,24.56
2023-05-20T01:52:31.287Z,24.64
2023-05-20T01:53:31.275Z,24.72
2023-05-20T01:54:31.263Z,25.25
2023-05-20T01:55:31.305Z,24.70
2023-05-20T01:56:31.246Z,24.61
2023-05-20T01:57:31.234Z,24.56
2023-05-20T01:58:31.218Z,24.71
2023-05-20T01:59:31.206Z,24.88
2023-05-20T02:00:31.227Z,25.02
2023-05-20T02:01:31.213Z,25.04
2023-05-20T02:02:31.256Z,24.64
2023-05-20T02:03:31.170Z,24.85
2023-05-20T02:04:31.180Z,24.54
2023-05-20T02:05:31.170Z,24.68
2023-05-20T02:06:31.134Z,24.71
2023-05-20T02:07:31.134Z,25.12
2023-05-20T02:08:31.116Z,24.62
2023-05-20T02:09:31.106Z,24.68
2023-05-20T02:10:31.091Z,25.04
2023-05-20T02:11:31.089Z,24.70
2023-05-20T02:12:31.082Z,24.71
2023-05-20T02:13:31.058Z,24.72
2023-05-20T02:14:31.060Z,24.73
2023-05-20T02:15:31.075Z,24.72
2023-05-20T02:16:31.080Z,24.96
2023-05-20T02:17:31.069Z,24.50
2023-05-20T02:18:31.010Z,24.70
2023-05-20T02:19:31.105Z,24.59
2023-05-20T02:20:31.016Z,24.65
2023-05-20T02:21:30.978Z,24.57
2023-05-20T02:22:30.967Z,24.50
2023-05-20T02:23:30.958Z,24.64
2023-05-20T02:24:30.942Z,24.71
2023-05-20T02:25:30.950Z,25.05
2023-05-20T02:26:30.925Z,24.70
2023-05-20T02:27:30.914Z,24.54
2023-05-20T02:28:30.905Z,24.70
2023-05-20T02:29:30.903Z,24.78
2023-05-20T02:30:30.885Z,24.69
2023-05-20T02:31:30.873Z,25.00
2023-05-20T02:32:30.861Z,25.17
2023-05-20T02:33:30.877Z,24.61
2023-05-20T02:34:30.934Z,24.62
2023-05-20T02:35:30.845Z,24.61
2023-05-20T02:36:30.844Z,25.05
2023-05-20T02:37:30.805Z,24.77
2023-05-20T02:38:30.806Z,24.25
2023-05-20T02:39:30.793Z,24.10
2023-05-20T02:40:30.778Z,24.65
2023-05-20T02:41:30.775Z,24.77
2023-05-20T02:42:30.763Z,24.68
2023-05-20T02:43:30.751Z,24.87
2023-05-20T02:44:30.736Z,24.77
2023-05-20T02:45:30.724Z,23.94
2023-05-20T02:46:30.742Z,24.78
2023-05-20T02:47:30.772Z,25.07
2023-05-20T02:48:30.693Z,24.50
2023-05-20T02:49:30.686Z,24.15
2023-05-20T02:50:30.667Z,24.71
2023-05-20T02:51:30.658Z,24.61
2023-05-20T02:52:30.674Z,23.76
2023-05-20T02:53:30.637Z,25.14
2023-05-20T02:54:30.627Z,24.05
2023-05-20T02:55:30.617Z,24.59
2023-05-20T02:56:30.615Z,24.71
2023-05-20T02:57:30.594Z,24.54
2023-05-20T02:58:30.584Z,24.69
2023-05-20T02:59:30.574Z,24.42
2023-05-20T03:00:30.571Z,24.64
2023-05-20T03:01:30.649Z,23.56
2023-05-20T03:02:30.549Z,24.72
2023-05-20T03:03:30.529Z,24.65
2023-05-20T03:04:30.539Z,24.64
2023-05-20T03:05:30.508Z,24.69
2023-05-20T03:06:30.501Z,25.02
2023-05-20T03:07:30.486Z,24.80
2023-05-20T03:08:30.505Z,25.12
2023-05-20T03:09:30.471Z,24.62
2023-05-20T03:10:30.454Z,24.02
2023-05-20T03:11:30.445Z,24.56
2023-05-20T03:12:30.435Z,24.77
2023-05-20T03:13:30.426Z,25.12
2023-05-20T03:14:30.414Z,25.23
2023-05-20T03:15:30.404Z,24.81
2023-05-20T03:16:30.442Z,25.05
2023-05-20T03:17:30.411Z,24.62
2023-05-20T03:18:30.373Z,24.73
2023-05-20T03:19:30.409Z,23.86
2023-05-20T03:20:30.347Z,24.65
2023-05-20T03:21:30.349Z,24.62
2023-05-20T03:22:30.325Z,25.04
2023-05-20T03:23:30.314Z,24.61
2023-05-20T03:24:30.327Z,24.71
2023-05-20T03:25:30.305Z,24.65
2023-05-20T03:26:30.282Z,24.68
2023-05-20T03:27:30.283Z,24.62
2023-05-20T03:28:30.262Z,24.04
2023-05-20T03:29:30.253Z,24.65
2023-05-20T03:30:30.240Z,24.59
2023-05-20T03:31:30.245Z,24.68
2023-05-20T03:32:30.279Z,24.54
2023-05-20T03:33:30.213Z,24.79
2023-05-20T03:34:30.212Z,24.79
2023-05-20T03:35:30.194Z,24.64
2023-05-20T03:36:30.229Z,24.48
2023-05-20T03:37:30.169Z,25.07
2023-05-20T03:38:30.156Z,25.22
2023-05-20T03:39:30.147Z,24.62
2023-05-20T03:40:30.184Z,24.80
2023-05-20T03:41:30.135Z,24.80
2023-05-20T03:42:30.112Z,24.69
2023-05-20T03:43:30.111Z,24.59
2023-05-20T03:44:30.100Z,24.77
2023-05-20T03:45:30.081Z,24.65
2023-05-20T03:46:30.097Z,24.71
2023-05-20T03:47:30.080Z,25.10
2023-05-20T03:48:30.055Z,24.62
2023-05-20T03:49:30.034Z,24.77
2023-05-20T03:50:30.026Z,25.12
2023-05-20T03:51:30.040Z,24.76
2023-05-20T03:52:30.009Z,24.56
2023-05-20T03:53:30.000Z,25.01
2023-05-20T03:54:29.983Z,25.10
2023-05-20T03:55:29.977Z,24.61
2023-05-20T03:56:29.997Z,24.94
2023-05-20T03:57:29.954Z,25.12
2023-05-20T03:58:29.951Z,24.05
2023-05-20T03:59:29.961Z,24.70
2023-05-20T04:00:29.920Z,25.01
2023-05-20T04:01:29.915Z,24.93
2023-05-20T04:02:30.113Z,24.69
2023-05-20T04:03:29.940Z,24.95
2023-05-20T04:04:29.878Z,25.02
2023-05-20T04:05:29.872Z,25.05
2023-05-20T04:06:29.860Z,24.92
2023-05-20T04:07:29.869Z,25.12
2023-05-20T04:08:29.835Z,25.15
2023-05-20T04:09:29.827Z,24.97
2023-05-20T04:10:29.820Z,25.04
2023-05-20T04:11:29.810Z,25.17
2023-05-20T04:12:29.817Z,25.22
2023-05-20T04:13:29.789Z,24.89
2023-05-20T04:14:30.172Z,24.62
2023-05-20T04:15:29.778Z,24.69
2023-05-20T04:16:29.807Z,24.79
2023-05-20T04:17:29.782Z,24.62
2023-05-20T04:18:29.731Z,25.15
2023-05-20T04:19:29.747Z,25.04
2023-05-20T04:20:29.716Z,24.80
2023-05-20T04:21:29.706Z,25.12
2023-05-20T04:22:29.692Z,24.72
2023-05-20T04:23:29.679Z,25.17
2023-05-20T04:24:29.667Z,25.04
2023-05-20T04:25:29.658Z,25.38
2023-05-20T04:26:29.652Z,25.40
2023-05-20T04:27:29.636Z,24.54
2023-05-20T04:28:29.647Z,25.04
2023-05-20T04:29:29.619Z,25.22
2023-05-20T04:30:29.601Z,25.12
2023-05-20T04:31:29.630Z,25.05
2023-05-20T04:32:29.588Z,25.09
2023-05-20T04:33:29.580Z,25.05
2023-05-20T04:34:29.564Z,25.45
2023-05-20T04:35:29.546Z,24.61
2023-05-20T04:36:29.547Z,25.48
2023-05-20T04:37:29.529Z,25.04
2023-05-20T04:38:29.930Z,24.72
2023-05-20T04:39:29.503Z,24.97
2023-05-20T04:40:29.501Z,25.02
2023-05-20T04:41:29.491Z,24.73
2023-05-20T04:42:29.507Z,25.04
2023-05-20T04:43:29.503Z,25.30
2023-05-20T04:44:29.501Z,25.52
2023-05-20T04:45:29.444Z,25.12
2023-05-20T04:46:29.453Z,25.04
2023-05-20T04:47:29.462Z,25.55
2023-05-20T04:48:29.422Z,25.04
2023-05-20T04:49:29.401Z,25.02
2023-05-20T04:50:29.394Z,25.10
2023-05-20T04:51:29.395Z,24.64
2023-05-20T04:52:29.365Z,24.69
2023-05-20T04:53:29.363Z,25.02
2023-05-20T04:54:29.347Z,25.48
2023-05-20T04:55:29.338Z,25.10
2023-05-20T04:56:29.325Z,25.20
2023-05-20T04:57:29.317Z,24.62
2023-05-20T04:58:29.311Z,25.10
2023-05-20T04:59:29.309Z,25.15
2023-05-20T05:00:29.322Z,24.96
2023-05-20T05:01:29.355Z,25.62
2023-05-20T05:02:29.277Z,24.76
2023-05-20T05:03:29.275Z,25.09
2023-05-20T05:04:29.258Z,24.64
2023-05-20T05:05:29.236Z,25.10
2023-05-20T05:06:29.222Z,25.19
2023-05-20T05:07:29.218Z,25.46
2023-05-20T05:08:29.204Z,25.45
2023-05-20T05:09:29.191Z,25.45
2023-05-20T05:10:29.179Z,24.96
2023-05-20T05:11:29.172Z,25.07
2023-05-20T05:12:29.163Z,25.05
2023-05-20T05:13:29.150Z,25.14
2023-05-20T05:14:29.142Z,25.59
2023-05-20T05:15:29.135Z,25.15
2023-05-20T05:16:29.244Z,25.19
2023-05-20T05:17:29.335Z,24.73
2023-05-20T05:18:29.096Z,25.25
2023-05-20T05:19:29.118Z,25.14
2023-05-20T05:20:29.076Z,25.19
2023-05-20T05:21:29.070Z,25.05
2023-05-20T05:22:29.054Z,25.04
2023-05-20T05:23:29.063Z,25.20
2023-05-20T05:24:29.033Z,25.22
2023-05-20T05:25:29.022Z,24.72
2023-05-20T05:26:29.015Z,25.10
2023-05-20T05:27:29.013Z,25.12
2023-05-20T05:28:28.996Z,25.02
2023-05-20T05:29:28.981Z,24.68
2023-05-20T05:30:28.974Z,25.56
2023-05-20T05:31:28.963Z,25.12
2023-05-20T05:32:29.038Z,25.04
2023-05-20T05:33:28.955Z,25.17
2023-05-20T05:34:28.927Z,24.78
2023-05-20T05:35:28.917Z,25.14
2023-05-20T05:36:28.905Z,25.17
2023-05-20T05:37:28.897Z,25.17
2023-05-20T05:38:28.879Z,24.89
2023-05-20T05:39:28.886Z,25.05
2023-05-20T05:40:28.863Z,25.36
2023-05-20T05:41:28.852Z,24.73
2023-05-20T05:42:28.855Z,25.25
2023-05-20T05:43:28.838Z,25.09
2023-05-20T05:44:28.846Z,25.04
2023-05-20T05:45:28.815Z,24.97
2023-05-20T05:46:28.951Z,25.48
2023-05-20T05:47:28.813Z,25.09
2023-05-20T05:48:28.800Z,25.04
2023-05-20T05:49:28.768Z,25.14
2023-05-20T05:50:28.753Z,25.46
2023-05-20T05:51:28.744Z,25.01
2023-05-20T05:52:28.733Z,24.73
2023-05-20T05:53:28.725Z,25.04
2023-05-20T05:54:28.722Z,25.55
2023-05-20T05:55:28.705Z,25.36
2023-05-20T05:56:28.689Z,25.15
2023-05-20T05:57:28.683Z,25.17
2023-05-20T05:58:28.668Z,25.12
2023-05-20T05:59:28.657Z,25.14
2023-05-20T06:00:28.654Z,25.12
2023-05-20T06:01:28.693Z,25.09
2023-05-20T06:02:28.736Z,25.04
2023-05-20T06:03:28.667Z,24.97
2023-05-20T06:04:28.681Z,24.95
2023-05-20T06:05:31.635Z,25.12
2023-05-20T06:06:28.586Z,25.53
2023-05-20T06:07:28.575Z,25.00
2023-05-20T06:08:28.562Z,25.51
2023-05-20T06:09:28.553Z,25.17
2023-05-20T06:10:28.575Z,25.28
2023-05-20T06:11:28.533Z,25.01
2023-05-20T06:12:28.531Z,25.14
2023-05-20T06:13:28.509Z,25.09
2023-05-20T06:14:28.496Z,25.45
2023-05-20T06:15:28.488Z,25.01
2023-05-20T06:16:28.504Z,25.19
2023-05-20T06:17:28.500Z,25.54
2023-05-20T06:18:28.462Z,25.09
2023-05-20T06:19:28.495Z,25.53
2023-05-20T06:20:28.503Z,25.15
2023-05-20T06:21:28.426Z,25.17
2023-05-20T06:22:28.413Z,25.12
2023-05-20T06:23:28.409Z,25.04
2023-05-20T06:24:28.394Z,24.94
2023-05-20T06:25:28.384Z,25.10
2023-05-20T06:26:28.372Z,25.07
2023-05-20T06:27:28.368Z,25.20
2023-05-20T06:28:28.357Z,25.05
2023-05-20T06:29:28.345Z,25.15
2023-05-20T06:30:28.332Z,25.36
2023-05-20T06:31:28.416Z,25.17
2023-05-20T06:32:28.324Z,25.09
2023-05-20T06:33:28.305Z,25.63
2023-05-20T06:34:28.295Z,25.15
2023-05-20T06:35:28.294Z,25.44
2023-05-20T06:36:28.313Z,25.07
2023-05-20T06:37:28.309Z,25.22
2023-05-20T06:38:28.252Z,25.04
2023-05-20T06:39:28.245Z,25.20
2023-05-20T06:40:28.232Z,25.10
2023-05-20T06:41:28.226Z,25.15
2023-05-20T06:42:28.227Z,25.05
2023-05-20T06:43:28.201Z,25.30
2023-05-20T06:44:28.195Z,25.15
2023-05-20T06:45:28.196Z,25.07
2023-05-20T06:46:28.237Z,25.12
2023-05-20T06:47:28.193Z,25.53
2023-05-20T06:48:28.152Z,25.02
2023-05-20T06:49:28.142Z,25.43
2023-05-20T06:50:28.139Z,25.07
2023-05-20T06:51:28.136Z,25.10
2023-05-20T06:52:28.136Z,25.22
2023-05-20T06:53:28.104Z,24.95
2023-05-20T06:54:28.087Z,25.04
2023-05-20T06:55:28.082Z,25.22
2023-05-20T06:56:28.070Z,25.07
2023-05-20T06:57:28.069Z,25.12
2023-05-20T06:58:28.056Z,25.30
2023-05-20T06:59:28.041Z,25.14
2023-05-20T07:00:28.032Z,25.19
2023-05-20T07:01:28.050Z,25.20
2023-05-20T07:02:28.029Z,25.10
2023-05-20T07:03:28.032Z,25.22
2023-05-20T07:04:27.983Z,25.04
2023-05-20T07:05:27.984Z,25.28
2023-05-20T07:06:27.973Z,25.17
2023-05-20T07:07:27.962Z,25.12
2023-05-20T07:08:27.967Z,25.04
2023-05-20T07:09:27.945Z,25.10
2023-05-20T07:10:27.928Z,25.10
2023-05-20T07:11:27.940Z,24.96
2023-05-20T07:12:27.906Z,25.07
2023-05-20T07:13:27.940Z,25.12
2023-05-20T07:14:27.883Z,25.09
2023-05-20T07:15:27.884Z,25.19
2023-05-20T07:16:28.006Z,25.20
2023-05-20T07:17:27.885Z,25.04
2023-05-20T07:18:27.855Z,25.25
2023-05-20T07:19:27.881Z,25.14
2023-05-20T07:20:27.821Z,25.02
2023-05-20T07:21:27.821Z,25.04
2023-05-20T07:22:27.802Z,25.14
2023-05-20T07:23:27.794Z,25.07
2023-05-20T07:24:27.800Z,25.23
2023-05-20T07:25:27.771Z,25.25
2023-05-20T07:26:27.783Z,25.10
2023-05-20T07:27:27.747Z,25.04
2023-05-20T07:28:27.739Z,25.12
2023-05-20T07:29:27.731Z,25.04
2023-05-20T07:30:27.721Z,25.09
2023-05-20T07:31:27.732Z,25.02
2023-05-20T07:32:27.709Z,25.07
2023-05-20T07:33:27.688Z,25.07
2023-05-20T07:34:27.687Z,25.15
2023-05-20T07:35:27.666Z,25.07
2023-05-20T07:36:27.697Z,25.04
2023-05-20T07:37:27.646Z,24.96
2023-05-20T07:38:27.633Z,25.14
2023-05-20T07:39:27.625Z,25.25
2023-05-20T07:40:27.634Z,25.10
2023-05-20T07:41:27.601Z,25.12
2023-05-20T07:42:27.591Z,25.12
2023-05-20T07:43:27.588Z,24.94
2023-05-20T07:44:27.777Z,25.12
2023-05-20T07:45:27.560Z,25.17
2023-05-20T07:46:27.569Z,25.04
2023-05-20T07:47:27.575Z,24.97
2023-05-20T07:48:27.535Z,25.02
2023-05-20T07:49:27.542Z,24.80
2023-05-20T07:50:27.508Z,25.09
2023-05-20T07:51:27.491Z,25.01
2023-05-20T07:52:27.486Z,24.78
2023-05-20T07:53:27.478Z,24.89
2023-05-20T07:54:27.467Z,25.05
2023-05-20T07:55:27.465Z,25.12
2023-05-20T07:56:27.468Z,25.14
2023-05-20T07:57:27.430Z,25.12
2023-05-20T07:58:27.426Z,25.09
2023-05-20T07:59:27.416Z,25.19
2023-05-20T08:00:27.414Z,25.12
2023-05-20T08:01:27.419Z,25.04
2023-05-20T08:02:27.460Z,24.97
2023-05-20T08:03:27.540Z,25.17
2023-05-20T08:04:27.838Z,25.14
2023-05-20T08:05:27.370Z,25.09
2023-05-20T08:06:29.652Z,25.04
2023-05-20T08:07:27.329Z,25.20
2023-05-20T08:08:27.318Z,25.54
2023-05-20T08:09:27.307Z,25.53
2023-05-20T08:10:27.298Z,25.04
2023-05-20T08:11:27.288Z,25.04
2023-05-20T08:12:27.301Z,25.12
2023-05-20T08:13:27.269Z,25.02
2023-05-20T08:14:27.253Z,25.10
2023-05-20T08:15:27.242Z,25.17
2023-05-20T08:16:27.281Z,25.01
2023-05-20T08:17:27.266Z,24.65
2023-05-20T08:18:27.212Z,25.07
2023-05-20T08:19:27.238Z,24.95
2023-05-20T08:20:27.191Z,25.07
2023-05-20T08:21:27.178Z,25.20
2023-05-20T08:22:27.175Z,25.14
2023-05-20T08:23:27.161Z,25.19
2023-05-20T08:24:27.150Z,25.12
2023-05-20T08:25:27.138Z,25.10
2023-05-20T08:26:27.127Z,25.12
2023-05-20T08:27:27.115Z,25.12
2023-05-20T08:28:27.134Z,25.07
2023-05-20T08:29:27.100Z,25.04
2023-05-20T08:30:27.083Z,25.01
2023-05-20T08:31:27.146Z,25.07
2023-05-20T08:32:27.095Z,25.04
2023-05-20T08:33:27.057Z,25.30
2023-05-20T08:34:27.049Z,25.04
2023-05-20T08:35:27.036Z,25.07
2023-05-20T08:36:27.021Z,25.04
2023-05-20T08:37:27.016Z,25.94
2023-05-20T08:38:27.000Z,26.06
2023-05-20T08:39:26.992Z,25.46
2023-05-20T08:40:26.976Z,25.38
2023-05-20T08:41:26.972Z,25.48
2023-05-20T08:42:26.980Z,25.46
2023-05-20T08:43:26.948Z,25.44
2023-05-20T08:44:26.957Z,25.45
2023-05-20T08:45:26.926Z,25.44
2023-05-20T08:46:26.949Z,25.47
2023-05-20T08:47:26.927Z,25.54
2023-05-20T08:48:26.897Z,25.52
2023-05-20T08:49:26.886Z,25.44
2023-05-20T08:50:26.872Z,25.44
2023-05-20T08:51:26.870Z,25.05
2023-05-20T08:52:26.854Z,25.48
2023-05-20T08:53:26.838Z,25.48
2023-05-20T08:54:26.832Z,25.02
2023-05-20T08:55:26.855Z,25.52
2023-05-20T08:56:28.755Z,25.55
2023-05-20T08:57:26.802Z,25.44
2023-05-20T08:58:26.812Z,25.59
2023-05-20T08:59:26.793Z,25.87
2023-05-20T09:00:26.907Z,25.47
2023-05-20T09:01:26.788Z,25.55
2023-05-20T09:02:26.780Z,25.60
2023-05-20T09:03:26.749Z,25.40
2023-05-20T09:04:26.738Z,25.52
2023-05-20T09:05:26.712Z,25.48
2023-05-20T09:06:26.706Z,25.52
2023-05-20T09:07:26.699Z,25.44
2023-05-20T09:08:26.702Z,25.54
2023-05-20T09:09:26.679Z,25.62
2023-05-20T09:10:26.673Z,25.48
2023-05-20T09:11:26.655Z,25.55
2023-05-20T09:12:26.644Z,25.47
2023-05-20T09:13:26.683Z,25.55
2023-05-20T09:14:26.621Z,25.53
2023-05-20T09:15:26.621Z,25.47
2023-05-20T09:16:26.656Z,25.47
2023-05-20T09:17:26.639Z,25.51
2023-05-20T09:18:26.585Z,25.44
2023-05-20T09:19:26.627Z,25.10
2023-05-20T09:20:26.561Z,25.52
2023-05-20T09:21:26.546Z,25.53
2023-05-20T09:22:26.538Z,25.53
2023-05-20T09:23:26.528Z,25.53
2023-05-20T09:24:26.741Z,25.53
2023-05-20T09:25:26.503Z,25.54
2023-05-20T09:26:26.491Z,25.52
2023-05-20T09:27:26.479Z,25.51
2023-05-20T09:28:26.472Z,25.47
2023-05-20T09:29:26.462Z,25.62
2023-05-20T09:30:26.451Z,25.47
2023-05-20T09:31:26.466Z,25.43
2023-05-20T09:32:26.578Z,25.32
2023-05-20T09:33:26.415Z,25.65
2023-05-20T09:34:26.406Z,25.51
2023-05-20T09:35:26.427Z,25.39
2023-05-20T09:36:26.398Z,25.44
2023-05-20T09:37:26.427Z,25.55
2023-05-20T09:38:26.390Z,25.59
2023-05-20T09:39:26.401Z,25.43
2023-05-20T09:40:26.371Z,25.53
2023-05-20T09:41:26.357Z,25.63
2023-05-20T09:42:26.340Z,25.52
2023-05-20T09:43:26.311Z,25.55
2023-05-20T09:44:26.305Z,25.47
2023-05-20T09:45:26.286Z,25.53
2023-05-20T09:46:26.325Z,25.52
2023-05-20T09:47:26.272Z,25.48
2023-05-20T09:48:26.283Z,25.47
2023-05-20T09:49:26.253Z,25.55
2023-05-20T09:50:26.235Z,25.36
2023-05-20T09:51:26.229Z,25.38
2023-05-20T09:52:26.221Z,25.54
2023-05-20T09:53:26.197Z,25.55
2023-05-20T09:54:26.266Z,25.46
2023-05-20T09:55:26.199Z,25.39
2023-05-20T09:56:26.172Z,25.39
2023-05-20T09:57:26.159Z,25.51
2023-05-20T09:58:26.152Z,25.36
2023-05-20T09:59:26.137Z,25.40
2023-05-20T10:00:26.132Z,25.07
2023-05-20T10:01:26.123Z,25.60
2023-05-20T10:02:26.178Z,25.60
2023-05-20T10:03:26.183Z,25.12
2023-05-20T10:04:26.109Z,25.15
2023-05-20T10:05:26.086Z,24.87
2023-05-20T10:06:26.059Z,24.96
2023-05-20T10:07:40.730Z,25.40
2023-05-20T10:08:27.070Z,25.07
2023-05-20T10:09:26.031Z,25.05
2023-05-20T10:10:26.019Z,25.48
2023-05-20T10:11:26.007Z,25.46
2023-05-20T10:12:26.001Z,25.10
2023-05-20T10:13:25.987Z,25.14
2023-05-20T10:14:25.978Z,25.53
2023-05-20T10:15:25.972Z,25.17
2023-05-20T10:16:25.985Z,25.14
2023-05-20T10:17:25.979Z,25.09
2023-05-20T10:18:25.949Z,25.28
2023-05-20T10:19:26.110Z,25.12
2023-05-20T10:20:25.938Z,25.52
2023-05-20T10:21:25.907Z,25.54
2023-05-20T10:22:25.898Z,25.12
2023-05-20T10:23:25.885Z,25.02
2023-05-20T10:24:25.876Z,25.48
2023-05-20T10:25:25.858Z,25.17
2023-05-20T10:26:25.858Z,24.92
2023-05-20T10:27:25.841Z,25.47
2023-05-20T10:28:25.836Z,25.15
2023-05-20T10:29:25.833Z,25.20
2023-05-20T10:30:25.806Z,25.17
2023-05-20T10:31:25.839Z,25.27
2023-05-20T10:32:25.855Z,25.31
2023-05-20T10:33:25.840Z,25.51
2023-05-20T10:34:25.771Z,25.01
2023-05-20T10:35:25.757Z,25.55
2023-05-20T10:36:25.775Z,25.32
2023-05-20T10:37:25.735Z,24.96
2023-05-20T10:38:25.731Z,25.31
2023-05-20T10:39:25.712Z,25.00
2023-05-20T10:40:25.706Z,25.12
2023-05-20T10:41:25.692Z,25.15
2023-05-20T10:42:25.681Z,25.48
2023-05-20T10:43:25.680Z,25.12
2023-05-20T10:44:25.666Z,24.97
2023-05-20T10:45:25.648Z,25.10
2023-05-20T10:46:34.981Z,25.45
2023-05-20T10:47:26.869Z,24.95
2023-05-20T10:48:25.714Z,25.54
2023-05-20T10:49:27.927Z,25.40
2023-05-20T10:50:25.600Z,25.07
2023-05-20T10:51:25.585Z,25.22
2023-05-20T10:52:25.599Z,25.04
2023-05-20T10:53:33.529Z,25.09
2023-05-20T10:54:26.585Z,25.04
2023-05-20T10:55:25.545Z,25.04
2023-05-20T10:56:25.532Z,25.39
2023-05-20T10:57:25.525Z,25.00
2023-05-20T10:58:25.511Z,25.22
2023-05-20T10:59:25.504Z,25.43
2023-05-20T11:00:25.491Z,25.53
2023-05-20T11:01:25.585Z,25.20
2023-05-20T11:02:25.481Z,25.54
2023-05-20T11:03:25.629Z,25.17
2023-05-20T11:04:25.446Z,25.59
2023-05-20T11:05:25.443Z,25.44
2023-05-20T11:06:25.426Z,24.95
2023-05-20T11:07:25.423Z,25.20
2023-05-20T11:08:29.075Z,25.54
2023-05-20T11:09:25.403Z,25.40
2023-05-20T11:10:25.385Z,25.52
2023-05-20T11:11:25.376Z,25.53
2023-05-20T11:12:25.370Z,25.43
2023-05-20T11:13:25.891Z,25.20
2023-05-20T11:14:25.341Z,25.54
2023-05-20T11:15:25.336Z,25.67
2023-05-20T11:16:25.357Z,25.37
2023-05-20T11:17:25.337Z,25.51
2023-05-20T11:18:25.314Z,25.56
2023-05-20T11:19:25.372Z,25.55
2023-05-20T11:20:25.280Z,25.48
2023-05-20T11:21:25.276Z,25.37
2023-05-20T11:22:25.271Z,26.12
2023-05-20T11:23:25.247Z,25.54
2023-05-20T11:24:25.262Z,25.59
2023-05-20T11:25:25.227Z,25.51
2023-05-20T11:26:25.226Z,25.46
2023-05-20T11:27:25.202Z,25.45
2023-05-20T11:28:25.194Z,25.48
2023-05-20T11:29:25.185Z,25.51
2023-05-20T11:30:25.178Z,25.60
2023-05-20T11:31:25.171Z,25.62
2023-05-20T11:32:25.203Z,25.59
2023-05-20T11:33:25.148Z,25.59
2023-05-20T11:34:26.840Z,25.45
2023-05-20T11:35:25.123Z,25.55
2023-05-20T11:36:28.226Z,25.60
2023-05-20T11:37:25.100Z,25.38
2023-05-20T11:38:25.100Z,25.54
2023-05-20T11:39:25.090Z,25.48
2023-05-20T11:40:27.071Z,25.65
2023-05-20T11:41:25.058Z,25.54
2023-05-20T11:42:25.048Z,25.45
2023-05-20T11:43:25.037Z,25.78
2023-05-20T11:44:25.049Z,25.36
2023-05-20T11:45:25.021Z,25.52
2023-05-20T11:46:25.058Z,25.32
2023-05-20T11:47:24.997Z,25.55
2023-05-20T11:48:24.987Z,25.44
2023-05-20T11:49:24.979Z,25.56
2023-05-20T11:50:24.964Z,25.55
2023-05-20T11:51:24.959Z,25.52
2023-05-20T11:52:24.945Z,25.53
2023-05-20T11:53:24.931Z,25.48
2023-05-20T11:54:24.923Z,25.59
2023-05-20T11:55:24.924Z,25.62
2023-05-20T11:56:24.928Z,25.35
2023-05-20T11:57:24.898Z,26.05
2023-05-20T11:58:24.899Z,25.47
2023-05-20T11:59:24.913Z,25.60
2023-05-20T12:00:25.480Z,25.59
2023-05-20T12:01:24.979Z,25.48
2023-05-20T12:02:24.894Z,25.59
2023-05-20T12:03:24.987Z,25.56
2023-05-20T12:04:24.924Z,25.52
2023-05-20T12:05:24.813Z,26.10
2023-05-20T12:06:24.795Z,25.52
2023-05-20T12:07:24.784Z,25.29
2023-05-20T12:08:24.775Z,25.48
2023-05-20T12:09:24.762Z,25.52
2023-05-20T12:10:24.758Z,25.51
2023-05-20T12:11:24.743Z,25.46
2023-05-20T12:12:24.753Z,26.03
2023-05-20T12:13:24.726Z,25.59
2023-05-20T12:14:24.711Z,25.62
2023-05-20T12:15:24.712Z,25.44
2023-05-20T12:16:24.732Z,25.59
2023-05-20T12:17:24.708Z,25.51
2023-05-20T12:18:24.675Z,25.43
2023-05-20T12:19:24.687Z,25.55
2023-05-20T12:20:24.657Z,25.59
2023-05-20T12:21:24.638Z,25.51
2023-05-20T12:22:24.628Z,25.44
2023-05-20T12:23:24.613Z,25.46
2023-05-20T12:24:24.608Z,25.44
2023-05-20T12:25:24.601Z,25.47
2023-05-20T12:26:24.580Z,25.07
2023-05-20T12:27:24.571Z,25.55
2023-05-20T12:28:24.594Z,25.54
2023-05-20T12:29:24.562Z,25.63
2023-05-20T12:30:24.538Z,25.40
2023-05-20T12:31:24.583Z,25.53
2023-05-20T12:32:24.564Z,25.39
2023-05-20T12:33:24.511Z,26.29
2023-05-20T12:34:24.503Z,25.40
2023-05-20T12:35:24.499Z,25.37
2023-05-20T12:36:24.485Z,25.55
2023-05-20T12:37:24.476Z,25.46
2023-05-20T12:38:24.453Z,25.48
2023-05-20T12:39:24.443Z,25.51
2023-05-20T12:40:24.435Z,25.52
2023-05-20T12:41:24.423Z,25.52
2023-05-20T12:42:24.415Z,25.65
2023-05-20T12:43:24.402Z,25.40
2023-05-20T12:44:24.418Z,25.51
2023-05-20T12:45:24.389Z,25.54
2023-05-20T12:46:24.414Z,25.46
2023-05-20T12:47:24.395Z,25.31
2023-05-20T12:48:24.366Z,25.62
2023-05-20T12:49:24.343Z,25.52
2023-05-20T12:50:24.344Z,25.55
2023-05-20T12:51:24.318Z,25.55
2023-05-20T12:52:24.304Z,25.35
2023-05-20T12:53:24.300Z,25.43